sensor_id;sensor_type;location;lat;lon;timestamp;P1;durP1;ratioP1;P2;durP2;ratioP2
16512;SDS011;8369;48.030;11.598;2023-04-03T00:01:13;8.87;;;5.80;;
16512;SDS011;8369;48.030;11.598;2023-04-03T00:03:40;9.63;;;6.30;;
16512;SDS011;8369;48.030;11.598;2023-04-03T00:06:09;10.60;;;6.23;;
16512;SDS011;8369;48.030;11.598;2023-04-03T00:08:37;8.43;;;5.93;;
16512;SDS011;8369;48.030;11.598;2023-04-03T00:11:03;10.10;;;6.27;;
16512;SDS011;8369;48.030;11.598;2023-04-03T00:13:32;9.67;;;6.73;;
16512;SDS011;8369;48.030;11.598;2023-04-03T00:15:58;7.83;;;6.10;;
16512;SDS011;8369;48.030;11.598;2023-04-03T00:18:24;10.07;;;6.17;;
16512;SDS011;8369;48.030;11.598;2023-04-03T00:20:49;8.80;;;6.37;;
16512;SDS011;8369;48.030;11.598;2023-04-03T00:23:15;8.77;;;5.90;;
16512;SDS011;8369;48.030;11.598;2023-04-03T00:25:41;8.37;;;5.73;;
16512;SDS011;8369;48.030;11.598;2023-04-03T00:28:07;10.87;;;6.47;;
16512;SDS011;8369;48.030;11.598;2023-04-03T00:30:33;8.67;;;6.40;;
16512;SDS011;8369;48.030;11.598;2023-04-03T00:33:02;9.97;;;6.20;;
16512;SDS011;8369;48.030;11.598;2023-04-03T00:35:28;9.27;;;6.10;;
16512;SDS011;8369;48.030;11.598;2023-04-03T00:37:54;8.43;;;6.20;;
16512;SDS011;8369;48.030;11.598;2023-04-03T00:40:22;7.40;;;5.37;;
16512;SDS011;8369;48.030;11.598;2023-04-03T00:42:49;7.93;;;5.90;;
16512;SDS011;8369;48.030;11.598;2023-04-03T00:47:52;9.37;;;6.40;;
16512;SDS011;8369;48.030;11.598;2023-04-03T00:50:19;7.53;;;6.07;;
16512;SDS011;8369;48.030;11.598;2023-04-03T00:52:45;7.80;;;5.93;;
16512;SDS011;8369;48.030;11.598;2023-04-03T00:55:13;10.10;;;6.30;;
16512;SDS011;8369;48.030;11.598;2023-04-03T00:57:40;7.87;;;6.27;;
16512;SDS011;8369;48.030;11.598;2023-04-03T01:00:07;8.47;;;6.03;;
16512;SDS011;8369;48.030;11.598;2023-04-03T01:02:36;7.87;;;6.03;;
16512;SDS011;8369;48.030;11.598;2023-04-03T01:05:03;9.53;;;5.67;;
16512;SDS011;8369;48.030;11.598;2023-04-03T01:07:30;8.37;;;5.97;;
16512;SDS011;8369;48.030;11.598;2023-04-03T01:09:59;7.87;;;5.80;;
16512;SDS011;8369;48.030;11.598;2023-04-03T01:15:20;8.70;;;5.57;;
16512;SDS011;8369;48.030;11.598;2023-04-03T01:17:55;7.67;;;5.87;;
16512;SDS011;8369;48.030;11.598;2023-04-03T01:25:56;7.40;;;5.43;;
16512;SDS011;8369;48.030;11.598;2023-04-03T01:28:26;8.80;;;5.97;;
16512;SDS011;8369;48.030;11.598;2023-04-03T01:34:06;9.40;;;6.27;;
16512;SDS011;8369;48.030;11.598;2023-04-03T01:36:32;7.37;;;5.43;;
16512;SDS011;8369;48.030;11.598;2023-04-03T01:38:58;7.73;;;5.23;;
16512;SDS011;8369;48.030;11.598;2023-04-03T01:41:25;6.00;;;5.13;;
16512;SDS011;8369;48.030;11.598;2023-04-03T01:43:51;6.77;;;5.53;;
16512;SDS011;8369;48.030;11.598;2023-04-03T01:46:17;7.70;;;6.10;;
16512;SDS011;8369;48.030;11.598;2023-04-03T01:48:44;8.10;;;5.67;;
16512;SDS011;8369;48.030;11.598;2023-04-03T01:51:10;9.90;;;5.70;;
16512;SDS011;8369;48.030;11.598;2023-04-03T01:53:36;8.83;;;6.23;;
16512;SDS011;8369;48.030;11.598;2023-04-03T01:56:02;7.77;;;5.57;;
16512;SDS011;8369;48.030;11.598;2023-04-03T01:58:29;9.90;;;5.23;;
16512;SDS011;8369;48.030;11.598;2023-04-03T02:00:55;7.43;;;5.37;;
16512;SDS011;8369;48.030;11.598;2023-04-03T02:03:21;8.20;;;6.00;;
16512;SDS011;8369;48.030;11.598;2023-04-03T02:05:46;8.30;;;5.50;;
16512;SDS011;8369;48.030;11.598;2023-04-03T02:08:12;6.80;;;5.50;;
16512;SDS011;8369;48.030;11.598;2023-04-03T02:10:38;7.63;;;5.47;;
16512;SDS011;8369;48.030;11.598;2023-04-03T02:13:04;6.50;;;5.17;;
16512;SDS011;8369;48.030;11.598;2023-04-03T02:15:30;6.13;;;5.37;;
16512;SDS011;8369;48.030;11.598;2023-04-03T02:17:56;6.90;;;5.30;;
16512;SDS011;8369;48.030;11.598;2023-04-03T02:20:22;7.33;;;5.60;;
16512;SDS011;8369;48.030;11.598;2023-04-03T02:22:48;6.67;;;5.50;;
16512;SDS011;8369;48.030;11.598;2023-04-03T02:25:14;10.63;;;5.83;;
16512;SDS011;8369;48.030;11.598;2023-04-03T02:27:40;5.87;;;5.20;;
16512;SDS011;8369;48.030;11.598;2023-04-03T02:30:06;8.03;;;6.23;;
16512;SDS011;8369;48.030;11.598;2023-04-03T02:32:34;7.83;;;5.73;;
16512;SDS011;8369;48.030;11.598;2023-04-03T02:35:00;7.67;;;5.70;;
16512;SDS011;8369;48.030;11.598;2023-04-03T02:37:26;8.03;;;5.73;;
16512;SDS011;8369;48.030;11.598;2023-04-03T02:39:51;8.27;;;6.57;;
16512;SDS011;8369;48.030;11.598;2023-04-03T02:42:17;7.50;;;5.70;;
16512;SDS011;8369;48.030;11.598;2023-04-03T02:44:43;6.87;;;5.40;;
16512;SDS011;8369;48.030;11.598;2023-04-03T02:47:09;8.00;;;5.70;;
16512;SDS011;8369;48.030;11.598;2023-04-03T02:49:35;8.00;;;5.90;;
16512;SDS011;8369;48.030;11.598;2023-04-03T02:52:01;9.77;;;6.90;;
16512;SDS011;8369;48.030;11.598;2023-04-03T02:54:27;8.87;;;6.03;;
16512;SDS011;8369;48.030;11.598;2023-04-03T02:56:56;8.00;;;6.27;;
16512;SDS011;8369;48.030;11.598;2023-04-03T02:59:23;10.30;;;6.00;;
16512;SDS011;8369;48.030;11.598;2023-04-03T03:01:49;8.90;;;5.90;;
16512;SDS011;8369;48.030;11.598;2023-04-03T03:04:15;8.07;;;5.73;;
16512;SDS011;8369;48.030;11.598;2023-04-03T03:06:41;6.63;;;5.47;;
16512;SDS011;8369;48.030;11.598;2023-04-03T03:09:07;7.00;;;5.53;;
16512;SDS011;8369;48.030;11.598;2023-04-03T03:11:33;8.80;;;6.47;;
16512;SDS011;8369;48.030;11.598;2023-04-03T03:14:15;11.07;;;6.20;;
16512;SDS011;8369;48.030;11.598;2023-04-03T03:16:41;7.33;;;5.80;;
16512;SDS011;8369;48.030;11.598;2023-04-03T03:19:07;6.23;;;5.20;;
16512;SDS011;8369;48.030;11.598;2023-04-03T03:21:33;8.07;;;5.73;;
16512;SDS011;8369;48.030;11.598;2023-04-03T03:23:59;7.77;;;5.33;;
16512;SDS011;8369;48.030;11.598;2023-04-03T03:26:25;7.33;;;5.67;;
16512;SDS011;8369;48.030;11.598;2023-04-03T03:28:51;8.77;;;5.40;;
16512;SDS011;8369;48.030;11.598;2023-04-03T03:31:17;7.93;;;5.63;;
16512;SDS011;8369;48.030;11.598;2023-04-03T03:33:43;7.90;;;5.70;;
16512;SDS011;8369;48.030;11.598;2023-04-03T03:36:09;7.87;;;6.20;;
16512;SDS011;8369;48.030;11.598;2023-04-03T03:38:36;8.27;;;6.20;;
16512;SDS011;8369;48.030;11.598;2023-04-03T03:41:02;8.60;;;6.00;;
16512;SDS011;8369;48.030;11.598;2023-04-03T03:43:28;10.00;;;6.10;;
16512;SDS011;8369;48.030;11.598;2023-04-03T03:45:55;9.30;;;6.13;;
16512;SDS011;8369;48.030;11.598;2023-04-03T03:48:21;7.47;;;5.63;;
16512;SDS011;8369;48.030;11.598;2023-04-03T03:50:48;7.73;;;5.73;;
16512;SDS011;8369;48.030;11.598;2023-04-03T03:53:14;10.07;;;6.67;;
16512;SDS011;8369;48.030;11.598;2023-04-03T03:55:40;7.03;;;5.17;;
16512;SDS011;8369;48.030;11.598;2023-04-03T03:58:07;7.57;;;5.37;;
16512;SDS011;8369;48.030;11.598;2023-04-03T04:00:33;8.00;;;4.90;;
16512;SDS011;8369;48.030;11.598;2023-04-03T04:02:59;8.67;;;5.23;;
16512;SDS011;8369;48.030;11.598;2023-04-03T04:05:26;6.27;;;4.87;;
16512;SDS011;8369;48.030;11.598;2023-04-03T04:07:51;8.63;;;5.30;;
16512;SDS011;8369;48.030;11.598;2023-04-03T04:10:17;5.33;;;4.40;;
16512;SDS011;8369;48.030;11.598;2023-04-03T04:12:43;7.23;;;4.73;;
16512;SDS011;8369;48.030;11.598;2023-04-03T04:15:09;6.30;;;4.67;;
16512;SDS011;8369;48.030;11.598;2023-04-03T04:17:36;5.30;;;4.27;;
16512;SDS011;8369;48.030;11.598;2023-04-03T04:20:02;5.37;;;4.40;;
16512;SDS011;8369;48.030;11.598;2023-04-03T04:22:30;8.53;;;4.77;;
16512;SDS011;8369;48.030;11.598;2023-04-03T04:24:56;5.93;;;4.90;;
16512;SDS011;8369;48.030;11.598;2023-04-03T04:27:37;7.03;;;4.27;;
16512;SDS011;8369;48.030;11.598;2023-04-03T04:30:03;7.30;;;4.57;;
16512;SDS011;8369;48.030;11.598;2023-04-03T04:32:29;7.23;;;4.67;;
16512;SDS011;8369;48.030;11.598;2023-04-03T04:34:56;5.50;;;4.30;;
16512;SDS011;8369;48.030;11.598;2023-04-03T04:37:22;5.50;;;4.20;;
16512;SDS011;8369;48.030;11.598;2023-04-03T04:39:50;4.93;;;4.13;;
16512;SDS011;8369;48.030;11.598;2023-04-03T04:42:16;6.30;;;4.00;;
16512;SDS011;8369;48.030;11.598;2023-04-03T04:44:42;5.63;;;3.93;;
16512;SDS011;8369;48.030;11.598;2023-04-03T04:47:07;5.67;;;4.53;;
16512;SDS011;8369;48.030;11.598;2023-04-03T04:49:33;5.17;;;4.17;;
16512;SDS011;8369;48.030;11.598;2023-04-03T04:51:59;6.60;;;4.40;;
16512;SDS011;8369;48.030;11.598;2023-04-03T04:54:25;5.40;;;4.10;;
16512;SDS011;8369;48.030;11.598;2023-04-03T04:57:03;6.07;;;4.57;;
16512;SDS011;8369;48.030;11.598;2023-04-03T04:59:38;4.83;;;3.80;;
16512;SDS011;8369;48.030;11.598;2023-04-03T05:02:06;5.67;;;4.20;;
16512;SDS011;8369;48.030;11.598;2023-04-03T05:04:32;7.17;;;4.00;;
16512;SDS011;8369;48.030;11.598;2023-04-03T05:06:58;5.43;;;4.23;;
16512;SDS011;8369;48.030;11.598;2023-04-03T05:09:24;5.63;;;4.17;;
16512;SDS011;8369;48.030;11.598;2023-04-03T05:11:50;6.83;;;4.40;;
16512;SDS011;8369;48.030;11.598;2023-04-03T05:14:16;7.03;;;4.10;;
16512;SDS011;8369;48.030;11.598;2023-04-03T05:16:42;3.87;;;3.40;;
16512;SDS011;8369;48.030;11.598;2023-04-03T05:19:08;8.33;;;4.60;;
16512;SDS011;8369;48.030;11.598;2023-04-03T05:21:34;6.53;;;4.13;;
16512;SDS011;8369;48.030;11.598;2023-04-03T05:24:00;5.07;;;4.10;;
16512;SDS011;8369;48.030;11.598;2023-04-03T05:26:28;5.53;;;3.70;;
16512;SDS011;8369;48.030;11.598;2023-04-03T05:28:57;5.97;;;4.73;;
16512;SDS011;8369;48.030;11.598;2023-04-03T05:31:24;5.33;;;4.20;;
16512;SDS011;8369;48.030;11.598;2023-04-03T05:33:56;4.93;;;3.80;;
16512;SDS011;8369;48.030;11.598;2023-04-03T05:36:22;5.60;;;4.20;;
16512;SDS011;8369;48.030;11.598;2023-04-03T05:38:47;7.13;;;4.07;;
16512;SDS011;8369;48.030;11.598;2023-04-03T05:41:14;6.47;;;4.10;;
16512;SDS011;8369;48.030;11.598;2023-04-03T05:43:40;5.47;;;4.30;;
16512;SDS011;8369;48.030;11.598;2023-04-03T05:46:10;6.47;;;4.30;;
16512;SDS011;8369;48.030;11.598;2023-04-03T05:48:38;5.90;;;4.10;;
16512;SDS011;8369;48.030;11.598;2023-04-03T05:51:05;6.10;;;4.00;;
16512;SDS011;8369;48.030;11.598;2023-04-03T05:53:34;6.40;;;4.23;;
16512;SDS011;8369;48.030;11.598;2023-04-03T05:56:02;5.10;;;3.80;;
16512;SDS011;8369;48.030;11.598;2023-04-03T05:58:29;4.83;;;3.50;;
16512;SDS011;8369;48.030;11.598;2023-04-03T06:00:55;6.77;;;4.23;;
16512;SDS011;8369;48.030;11.598;2023-04-03T06:03:22;6.40;;;4.23;;
16512;SDS011;8369;48.030;11.598;2023-04-03T06:05:48;4.63;;;3.77;;
16512;SDS011;8369;48.030;11.598;2023-04-03T06:08:14;6.77;;;4.27;;
16512;SDS011;8369;48.030;11.598;2023-04-03T06:10:40;5.10;;;3.50;;
16512;SDS011;8369;48.030;11.598;2023-04-03T06:13:06;5.53;;;3.90;;
16512;SDS011;8369;48.030;11.598;2023-04-03T06:15:32;5.00;;;3.67;;
16512;SDS011;8369;48.030;11.598;2023-04-03T06:18:01;5.60;;;3.73;;
16512;SDS011;8369;48.030;11.598;2023-04-03T06:20:27;5.23;;;3.70;;
16512;SDS011;8369;48.030;11.598;2023-04-03T06:22:53;5.07;;;3.90;;
16512;SDS011;8369;48.030;11.598;2023-04-03T06:25:19;4.73;;;3.53;;
16512;SDS011;8369;48.030;11.598;2023-04-03T06:27:46;4.27;;;3.47;;
16512;SDS011;8369;48.030;11.598;2023-04-03T06:30:12;5.07;;;3.70;;
16512;SDS011;8369;48.030;11.598;2023-04-03T06:32:40;4.10;;;3.50;;
16512;SDS011;8369;48.030;11.598;2023-04-03T06:35:06;4.57;;;3.73;;
16512;SDS011;8369;48.030;11.598;2023-04-03T06:37:33;6.00;;;3.90;;
16512;SDS011;8369;48.030;11.598;2023-04-03T06:40:00;5.03;;;3.77;;
16512;SDS011;8369;48.030;11.598;2023-04-03T06:42:28;4.07;;;3.33;;
16512;SDS011;8369;48.030;11.598;2023-04-03T06:44:54;4.50;;;3.60;;
16512;SDS011;8369;48.030;11.598;2023-04-03T06:47:20;4.77;;;3.97;;
16512;SDS011;8369;48.030;11.598;2023-04-03T06:49:46;5.37;;;3.37;;
16512;SDS011;8369;48.030;11.598;2023-04-03T06:52:12;4.40;;;3.80;;
16512;SDS011;8369;48.030;11.598;2023-04-03T06:54:39;3.47;;;3.17;;
16512;SDS011;8369;48.030;11.598;2023-04-03T06:57:06;4.70;;;3.77;;
16512;SDS011;8369;48.030;11.598;2023-04-03T06:59:33;4.87;;;4.00;;
16512;SDS011;8369;48.030;11.598;2023-04-03T07:01:59;4.20;;;3.37;;
16512;SDS011;8369;48.030;11.598;2023-04-03T07:04:25;6.93;;;3.50;;
16512;SDS011;8369;48.030;11.598;2023-04-03T07:06:51;5.17;;;3.50;;
16512;SDS011;8369;48.030;11.598;2023-04-03T07:09:20;4.60;;;3.63;;
16512;SDS011;8369;48.030;11.598;2023-04-03T07:11:46;4.90;;;3.80;;
16512;SDS011;8369;48.030;11.598;2023-04-03T07:14:12;4.40;;;3.53;;
16512;SDS011;8369;48.030;11.598;2023-04-03T07:16:38;4.17;;;3.73;;
16512;SDS011;8369;48.030;11.598;2023-04-03T07:19:04;4.30;;;3.47;;
16512;SDS011;8369;48.030;11.598;2023-04-03T07:21:30;5.10;;;3.63;;
16512;SDS011;8369;48.030;11.598;2023-04-03T07:23:56;7.97;;;4.17;;
16512;SDS011;8369;48.030;11.598;2023-04-03T07:26:22;5.53;;;3.50;;
16512;SDS011;8369;48.030;11.598;2023-04-03T07:28:49;4.67;;;3.23;;
16512;SDS011;8369;48.030;11.598;2023-04-03T07:31:15;5.07;;;3.80;;
16512;SDS011;8369;48.030;11.598;2023-04-03T07:33:42;4.70;;;3.60;;
16512;SDS011;8369;48.030;11.598;2023-04-03T07:36:17;5.13;;;3.90;;
16512;SDS011;8369;48.030;11.598;2023-04-03T07:38:44;3.47;;;3.17;;
16512;SDS011;8369;48.030;11.598;2023-04-03T07:41:14;3.80;;;3.30;;
16512;SDS011;8369;48.030;11.598;2023-04-03T07:43:42;3.37;;;3.07;;
16512;SDS011;8369;48.030;11.598;2023-04-03T07:46:10;6.93;;;3.70;;
16512;SDS011;8369;48.030;11.598;2023-04-03T07:48:36;5.23;;;3.63;;
16512;SDS011;8369;48.030;11.598;2023-04-03T07:51:02;5.37;;;3.70;;
16512;SDS011;8369;48.030;11.598;2023-04-03T07:53:29;5.87;;;3.77;;
16512;SDS011;8369;48.030;11.598;2023-04-03T07:55:58;5.03;;;3.50;;
16512;SDS011;8369;48.030;11.598;2023-04-03T07:58:25;5.60;;;3.87;;
16512;SDS011;8369;48.030;11.598;2023-04-03T08:00:51;4.30;;;3.57;;
16512;SDS011;8369;48.030;11.598;2023-04-03T08:03:17;4.10;;;3.37;;
16512;SDS011;8369;48.030;11.598;2023-04-03T08:05:44;3.43;;;3.13;;
16512;SDS011;8369;48.030;11.598;2023-04-03T08:08:12;6.70;;;4.23;;
16512;SDS011;8369;48.030;11.598;2023-04-03T08:10:40;4.63;;;3.90;;
16512;SDS011;8369;48.030;11.598;2023-04-03T08:13:07;5.97;;;3.67;;
16512;SDS011;8369;48.030;11.598;2023-04-03T08:15:33;4.97;;;3.50;;
16512;SDS011;8369;48.030;11.598;2023-04-03T08:17:59;5.03;;;3.80;;
16512;SDS011;8369;48.030;11.598;2023-04-03T08:20:25;4.60;;;3.60;;
16512;SDS011;8369;48.030;11.598;2023-04-03T08:22:52;5.33;;;3.87;;
16512;SDS011;8369;48.030;11.598;2023-04-03T08:25:18;7.50;;;3.60;;
16512;SDS011;8369;48.030;11.598;2023-04-03T08:27:44;4.97;;;3.53;;
16512;SDS011;8369;48.030;11.598;2023-04-03T08:30:10;5.13;;;4.07;;
16512;SDS011;8369;48.030;11.598;2023-04-03T08:32:36;5.87;;;3.97;;
16512;SDS011;8369;48.030;11.598;2023-04-03T08:35:02;8.63;;;4.03;;
16512;SDS011;8369;48.030;11.598;2023-04-03T08:37:29;5.17;;;3.60;;
16512;SDS011;8369;48.030;11.598;2023-04-03T08:40:16;7.53;;;4.37;;
16512;SDS011;8369;48.030;11.598;2023-04-03T08:45:56;4.70;;;3.73;;
16512;SDS011;8369;48.030;11.598;2023-04-03T08:48:31;5.17;;;3.90;;
16512;SDS011;8369;48.030;11.598;2023-04-03T08:51:02;4.20;;;3.70;;
16512;SDS011;8369;48.030;11.598;2023-04-03T08:53:37;7.07;;;3.83;;
16512;SDS011;8369;48.030;11.598;2023-04-03T08:56:08;5.60;;;3.70;;
16512;SDS011;8369;48.030;11.598;2023-04-03T08:58:41;5.03;;;4.27;;
16512;SDS011;8369;48.030;11.598;2023-04-03T09:01:22;3.90;;;3.47;;
16512;SDS011;8369;48.030;11.598;2023-04-03T09:04:42;7.37;;;4.00;;
16512;SDS011;8369;48.030;11.598;2023-04-03T09:07:11;5.77;;;3.80;;
16512;SDS011;8369;48.030;11.598;2023-04-03T09:09:42;6.77;;;4.43;;
16512;SDS011;8369;48.030;11.598;2023-04-03T09:12:25;6.30;;;4.00;;
16512;SDS011;8369;48.030;11.598;2023-04-03T09:20:25;6.40;;;4.40;;
16512;SDS011;8369;48.030;11.598;2023-04-03T09:25:56;4.73;;;4.03;;
16512;SDS011;8369;48.030;11.598;2023-04-03T09:28:31;5.70;;;4.23;;
16512;SDS011;8369;48.030;11.598;2023-04-03T09:31:00;5.90;;;4.53;;
16512;SDS011;8369;48.030;11.598;2023-04-03T09:33:27;5.13;;;4.07;;
16512;SDS011;8369;48.030;11.598;2023-04-03T09:35:55;4.83;;;4.20;;
16512;SDS011;8369;48.030;11.598;2023-04-03T09:38:21;5.17;;;4.17;;
16512;SDS011;8369;48.030;11.598;2023-04-03T09:41:30;7.17;;;4.00;;
16512;SDS011;8369;48.030;11.598;2023-04-03T09:43:41;5.47;;;3.87;;
16512;SDS011;8369;48.030;11.598;2023-04-03T09:46:36;4.67;;;3.93;;
16512;SDS011;8369;48.030;11.598;2023-04-03T09:49:04;6.10;;;4.50;;
16512;SDS011;8369;48.030;11.598;2023-04-03T09:51:30;4.07;;;3.67;;
16512;SDS011;8369;48.030;11.598;2023-04-03T09:53:56;4.97;;;3.87;;
16512;SDS011;8369;48.030;11.598;2023-04-03T09:56:26;4.97;;;3.57;;
16512;SDS011;8369;48.030;11.598;2023-04-03T10:04:18;4.20;;;3.43;;
16512;SDS011;8369;48.030;11.598;2023-04-03T10:06:49;4.67;;;3.70;;
16512;SDS011;8369;48.030;11.598;2023-04-03T10:09:24;5.40;;;3.80;;
16512;SDS011;8369;48.030;11.598;2023-04-03T10:11:59;5.60;;;4.00;;
16512;SDS011;8369;48.030;11.598;2023-04-03T10:14:54;4.53;;;4.00;;
16512;SDS011;8369;48.030;11.598;2023-04-03T10:17:18;5.20;;;4.20;;
16512;SDS011;8369;48.030;11.598;2023-04-03T10:20:02;5.93;;;4.30;;
16512;SDS011;8369;48.030;11.598;2023-04-03T10:22:55;4.00;;;3.53;;
16512;SDS011;8369;48.030;11.598;2023-04-03T10:25:43;4.90;;;4.03;;
16512;SDS011;8369;48.030;11.598;2023-04-03T10:31:46;5.57;;;4.10;;
16512;SDS011;8369;48.030;11.598;2023-04-03T10:34:35;9.10;;;4.87;;
16512;SDS011;8369;48.030;11.598;2023-04-03T10:39:54;5.57;;;4.17;;
16512;SDS011;8369;48.030;11.598;2023-04-03T10:46:00;4.90;;;3.73;;
16512;SDS011;8369;48.030;11.598;2023-04-03T10:59:12;6.03;;;4.30;;
16512;SDS011;8369;48.030;11.598;2023-04-03T11:01:48;4.80;;;4.00;;
16512;SDS011;8369;48.030;11.598;2023-04-03T11:04:20;5.27;;;4.20;;
16512;SDS011;8369;48.030;11.598;2023-04-03T11:06:57;6.23;;;4.10;;
16512;SDS011;8369;48.030;11.598;2023-04-03T11:09:31;5.13;;;3.87;;
16512;SDS011;8369;48.030;11.598;2023-04-03T11:14:40;4.57;;;3.90;;
16512;SDS011;8369;48.030;11.598;2023-04-03T11:19:47;6.07;;;4.07;;
16512;SDS011;8369;48.030;11.598;2023-04-03T11:25:20;4.97;;;3.80;;
16512;SDS011;8369;48.030;11.598;2023-04-03T11:27:49;4.87;;;3.90;;
16512;SDS011;8369;48.030;11.598;2023-04-03T11:33:28;5.20;;;3.90;;
16512;SDS011;8369;48.030;11.598;2023-04-03T11:36:38;7.37;;;4.30;;
16512;SDS011;8369;48.030;11.598;2023-04-03T11:39:20;4.93;;;3.73;;
16512;SDS011;8369;48.030;11.598;2023-04-03T11:42:12;5.07;;;3.70;;
16512;SDS011;8369;48.030;11.598;2023-04-03T11:44:51;7.20;;;4.03;;
16512;SDS011;8369;48.030;11.598;2023-04-03T11:48:41;4.93;;;4.10;;
16512;SDS011;8369;48.030;11.598;2023-04-03T11:51:01;5.33;;;4.50;;
16512;SDS011;8369;48.030;11.598;2023-04-03T11:53:47;5.23;;;4.00;;
16512;SDS011;8369;48.030;11.598;2023-04-03T12:01:48;6.30;;;4.33;;
16512;SDS011;8369;48.030;11.598;2023-04-03T12:04:19;6.67;;;4.80;;
16512;SDS011;8369;48.030;11.598;2023-04-03T12:06:49;9.37;;;4.93;;
16512;SDS011;8369;48.030;11.598;2023-04-03T12:09:26;6.20;;;5.07;;
16512;SDS011;8369;48.030;11.598;2023-04-03T12:15:21;5.47;;;4.13;;
16512;SDS011;8369;48.030;11.598;2023-04-03T12:17:47;6.77;;;5.10;;
16512;SDS011;8369;48.030;11.598;2023-04-03T12:23:32;5.57;;;4.03;;
16512;SDS011;8369;48.030;11.598;2023-04-03T12:26:06;5.80;;;3.73;;
16512;SDS011;8369;48.030;11.598;2023-04-03T12:28:47;5.23;;;3.70;;
16512;SDS011;8369;48.030;11.598;2023-04-03T12:31:14;4.47;;;3.90;;
16512;SDS011;8369;48.030;11.598;2023-04-03T12:34:00;4.87;;;4.03;;
16512;SDS011;8369;48.030;11.598;2023-04-03T12:39:10;6.60;;;3.80;;
16512;SDS011;8369;48.030;11.598;2023-04-03T12:41:50;4.40;;;3.63;;
16512;SDS011;8369;48.030;11.598;2023-04-03T12:44:51;6.97;;;4.30;;
16512;SDS011;8369;48.030;11.598;2023-04-03T12:47:31;8.83;;;5.13;;
16512;SDS011;8369;48.030;11.598;2023-04-03T12:50:02;4.90;;;4.20;;
16512;SDS011;8369;48.030;11.598;2023-04-03T12:52:47;4.00;;;3.53;;
16512;SDS011;8369;48.030;11.598;2023-04-03T12:55:30;4.30;;;3.90;;
16512;SDS011;8369;48.030;11.598;2023-04-03T12:57:57;4.53;;;3.23;;
16512;SDS011;8369;48.030;11.598;2023-04-03T13:00:40;4.33;;;3.70;;
16512;SDS011;8369;48.030;11.598;2023-04-03T13:03:12;4.87;;;3.30;;
16512;SDS011;8369;48.030;11.598;2023-04-03T13:05:47;5.70;;;3.90;;
16512;SDS011;8369;48.030;11.598;2023-04-03T13:08:13;5.40;;;4.30;;
16512;SDS011;8369;48.030;11.598;2023-04-03T13:10:49;6.97;;;4.13;;
16512;SDS011;8369;48.030;11.598;2023-04-03T13:13:37;5.93;;;3.40;;
16512;SDS011;8369;48.030;11.598;2023-04-03T13:16:09;4.83;;;3.37;;
16512;SDS011;8369;48.030;11.598;2023-04-03T13:18:36;6.33;;;3.57;;
16512;SDS011;8369;48.030;11.598;2023-04-03T13:21:05;5.87;;;3.47;;
16512;SDS011;8369;48.030;11.598;2023-04-03T13:23:43;3.93;;;3.13;;
16512;SDS011;8369;48.030;11.598;2023-04-03T13:26:12;6.00;;;3.33;;
16512;SDS011;8369;48.030;11.598;2023-04-03T13:28:45;4.60;;;3.37;;
16512;SDS011;8369;48.030;11.598;2023-04-03T13:33:41;3.37;;;3.00;;
16512;SDS011;8369;48.030;11.598;2023-04-03T13:36:20;4.37;;;3.53;;
16512;SDS011;8369;48.030;11.598;2023-04-03T13:39:00;3.23;;;2.80;;
16512;SDS011;8369;48.030;11.598;2023-04-03T13:41:39;6.17;;;4.07;;
16512;SDS011;8369;48.030;11.598;2023-04-03T13:44:23;4.63;;;3.30;;
16512;SDS011;8369;48.030;11.598;2023-04-03T13:47:01;4.23;;;3.27;;
16512;SDS011;8369;48.030;11.598;2023-04-03T13:49:43;4.87;;;3.40;;
16512;SDS011;8369;48.030;11.598;2023-04-03T13:57:49;4.53;;;3.40;;
16512;SDS011;8369;48.030;11.598;2023-04-03T14:00:25;5.40;;;3.10;;
16512;SDS011;8369;48.030;11.598;2023-04-03T14:02:55;4.77;;;3.30;;
16512;SDS011;8369;48.030;11.598;2023-04-03T14:05:23;3.77;;;3.00;;
16512;SDS011;8369;48.030;11.598;2023-04-03T14:07:51;5.07;;;3.83;;
16512;SDS011;8369;48.030;11.598;2023-04-03T14:10:21;4.97;;;3.50;;
16512;SDS011;8369;48.030;11.598;2023-04-03T14:12:50;4.30;;;3.20;;
16512;SDS011;8369;48.030;11.598;2023-04-03T14:15:18;4.97;;;3.10;;
16512;SDS011;8369;48.030;11.598;2023-04-03T14:17:52;5.30;;;3.10;;
16512;SDS011;8369;48.030;11.598;2023-04-03T14:20:27;4.73;;;2.30;;
16512;SDS011;8369;48.030;11.598;2023-04-03T14:22:54;2.87;;;1.93;;
16512;SDS011;8369;48.030;11.598;2023-04-03T14:25:20;2.93;;;2.30;;
16512;SDS011;8369;48.030;11.598;2023-04-03T14:27:51;3.17;;;2.07;;
16512;SDS011;8369;48.030;11.598;2023-04-03T14:30:23;3.97;;;2.10;;
16512;SDS011;8369;48.030;11.598;2023-04-03T14:32:51;2.73;;;2.00;;
16512;SDS011;8369;48.030;11.598;2023-04-03T14:35:18;3.77;;;1.80;;
16512;SDS011;8369;48.030;11.598;2023-04-03T14:37:45;3.27;;;2.33;;
16512;SDS011;8369;48.030;11.598;2023-04-03T14:40:16;2.70;;;2.13;;
16512;SDS011;8369;48.030;11.598;2023-04-03T14:42:45;8.23;;;2.50;;
16512;SDS011;8369;48.030;11.598;2023-04-03T14:45:13;3.30;;;2.20;;
16512;SDS011;8369;48.030;11.598;2023-04-03T14:47:42;2.87;;;2.53;;
16512;SDS011;8369;48.030;11.598;2023-04-03T14:50:17;3.17;;;2.77;;
16512;SDS011;8369;48.030;11.598;2023-04-03T14:52:46;3.40;;;2.77;;
16512;SDS011;8369;48.030;11.598;2023-04-03T14:55:14;3.20;;;2.40;;
16512;SDS011;8369;48.030;11.598;2023-04-03T14:57:42;2.40;;;2.20;;
16512;SDS011;8369;48.030;11.598;2023-04-03T15:00:13;4.27;;;2.57;;
16512;SDS011;8369;48.030;11.598;2023-04-03T15:02:40;4.33;;;2.50;;
16512;SDS011;8369;48.030;11.598;2023-04-03T15:05:08;2.87;;;2.60;;
16512;SDS011;8369;48.030;11.598;2023-04-03T15:07:36;3.73;;;2.67;;
16512;SDS011;8369;48.030;11.598;2023-04-03T15:12:41;2.97;;;1.80;;
16512;SDS011;8369;48.030;11.598;2023-04-03T15:15:08;3.27;;;2.50;;
16512;SDS011;8369;48.030;11.598;2023-04-03T15:17:34;2.43;;;2.00;;
16512;SDS011;8369;48.030;11.598;2023-04-03T15:20:02;2.00;;;1.80;;
16512;SDS011;8369;48.030;11.598;2023-04-03T15:22:34;2.20;;;1.97;;
16512;SDS011;8369;48.030;11.598;2023-04-03T15:25:00;5.23;;;2.53;;
16512;SDS011;8369;48.030;11.598;2023-04-03T15:27:25;3.73;;;2.53;;
16512;SDS011;8369;48.030;11.598;2023-04-03T15:29:53;2.20;;;2.00;;
16512;SDS011;8369;48.030;11.598;2023-04-03T15:32:19;4.03;;;2.20;;
16512;SDS011;8369;48.030;11.598;2023-04-03T15:34:45;3.40;;;2.00;;
16512;SDS011;8369;48.030;11.598;2023-04-03T15:37:11;2.70;;;2.10;;
16512;SDS011;8369;48.030;11.598;2023-04-03T15:39:37;2.90;;;2.10;;
16512;SDS011;8369;48.030;11.598;2023-04-03T15:42:03;1.83;;;1.70;;
16512;SDS011;8369;48.030;11.598;2023-04-03T15:44:31;4.23;;;1.70;;
16512;SDS011;8369;48.030;11.598;2023-04-03T15:46:58;5.90;;;2.87;;
16512;SDS011;8369;48.030;11.598;2023-04-03T15:49:25;5.17;;;2.30;;
16512;SDS011;8369;48.030;11.598;2023-04-03T15:51:52;6.73;;;3.67;;
16512;SDS011;8369;48.030;11.598;2023-04-03T15:54:18;1.90;;;1.80;;
16512;SDS011;8369;48.030;11.598;2023-04-03T15:56:44;3.30;;;2.33;;
16512;SDS011;8369;48.030;11.598;2023-04-03T15:59:12;11.33;;;4.57;;
16512;SDS011;8369;48.030;11.598;2023-04-03T16:01:41;9.27;;;5.00;;
16512;SDS011;8369;48.030;11.598;2023-04-03T16:04:09;7.00;;;3.77;;
16512;SDS011;8369;48.030;11.598;2023-04-03T16:06:35;4.10;;;3.03;;
16512;SDS011;8369;48.030;11.598;2023-04-03T16:09:02;4.70;;;3.07;;
16512;SDS011;8369;48.030;11.598;2023-04-03T16:11:28;6.03;;;2.63;;
16512;SDS011;8369;48.030;11.598;2023-04-03T16:13:55;3.57;;;2.60;;
16512;SDS011;8369;48.030;11.598;2023-04-03T16:16:22;2.53;;;2.03;;
16512;SDS011;8369;48.030;11.598;2023-04-03T16:18:52;2.77;;;1.90;;
16512;SDS011;8369;48.030;11.598;2023-04-03T16:21:20;2.27;;;1.70;;
16512;SDS011;8369;48.030;11.598;2023-04-03T16:23:46;3.60;;;2.17;;
16512;SDS011;8369;48.030;11.598;2023-04-03T16:26:12;2.40;;;1.80;;
16512;SDS011;8369;48.030;11.598;2023-04-03T16:28:39;3.60;;;1.80;;
16512;SDS011;8369;48.030;11.598;2023-04-03T16:31:05;3.63;;;1.80;;